TAF LFBO
LFBO 090500Z 0906/1012 26014KT 9999 BKN018 BKN040 PROB30 TEMPO 0906/0908 BKN012 BECMG 0909/0911 SCT020 BECMG 0915/0918 VRB03KT BKN030 BECMG 0920/0922 BKN008 BKN025 OVC050 TEMPO 0920/1003 3000 RA BECMG 1000/1002 26015G25KT SCT013 BKN030 TEMPO 1003/1012 31020G35KT PROB40 TEMPO 1004/1012 4000 -SHRA BKN010TCU=
METAR LFBO
LFBO 091000Z AUTO 26009KT CAVOK 06/03 Q1015 NOSIG=
LFBO 090930Z AUTO 25010KT CAVOK 06/04 Q1015 NOSIG=
LFBO 090900Z AUTO 25010KT CAVOK 05/03 Q1015 NOSIG=
LFBO 090830Z AUTO 26012KT CAVOK 05/03 Q1015 NOSIG=
LFBO 090800Z AUTO 26012KT 220V280 CAVOK 04/03 Q1015 NOSIG=
WC LFBO
WS LFBO
WV LFBO